Terminal Aerodrome Forecast
Issued by NWS

Home | Current Version | Previous Version | Text Only | Print | Product List | Glossary On
Versions: 1 2 3 4 5 6 7 8 9 10 11 12 13 14 15 16 17 18 19 20 21
000
FTUS43 KPAH 231406 AAA
TAFCGI
TAF AMD
KCGI 231406Z 2314/2412 VRB03KT P6SM FEW035
      TEMPO 2314/2315 BKN008
     FM232000 14003KT P6SM VCSH BKN030
     FM240300 00000KT P6SM SKC=

USA.gov is the U.S. government's official web portal to all federal, state and local government web resources and services.